Time;durP1;ratioP1;P1;durP2;ratioP2;P2;SDS_P1;SDS_P2;PMS_P1;PMS_P2;Temp;Humidity;BMP_temperature;BMP_pressure;BME280_temperature;BME280_humidity;BME280_pressure;Samples;Min_cycle;Max_cycle;Signal;HPM_P1;HPM_P2
2022/11/11 00:02:24;;;;;;;4.05;0.85;;;24.80;99.90;;;;;;5084846;28;20196;-82
2022/11/11 00:04:56;;;;;;;4.65;0.90;;;24.80;99.90;;;;;;5081711;28;20302;-80
2022/11/11 00:07:27;;;;;;;2.70;0.80;;;24.90;99.90;;;;;;5088830;28;20226;-81
2022/11/11 00:09:57;;;;;;;3.03;0.88;;;24.70;99.90;;;;;;5087535;28;20187;-80
2022/11/11 00:12:28;;;;;;;3.70;0.80;;;24.70;99.90;;;;;;5081025;28;20225;-80
2022/11/11 00:15:03;;;;;;;3.67;0.88;;;24.60;99.90;;;;;;5079651;28;20233;-80
2022/11/11 00:26:04;;;;;;;2.17;0.77;;;25.00;99.90;;;;;;5089659;28;20213;-78
2022/11/11 00:28:34;;;;;;;2.88;0.88;;;25.00;99.90;;;;;;5090356;28;20542;-79
2022/11/11 00:31:09;;;;;;;3.90;0.82;;;24.90;99.90;;;;;;5090579;28;20562;-79
2022/11/11 00:33:41;;;;;;;2.30;0.70;;;24.60;99.90;;;;;;5083949;28;20191;-80
2022/11/11 00:36:10;;;;;;;2.88;0.80;;;24.50;99.90;;;;;;5081925;28;20198;-80
2022/11/11 00:38:49;;;;;;;4.10;0.73;;;24.50;99.90;;;;;;5085834;28;20222;-79
2022/11/11 00:41:20;;;;;;;2.17;0.80;;;24.40;99.90;;;;;;5088222;28;20314;-79
2022/11/11 00:43:51;;;;;;;4.18;0.75;;;24.30;99.90;;;;;;5090044;28;20209;-78
2022/11/11 00:51:57;;;;;;;2.22;0.80;;;24.40;99.90;;;;;;5088957;28;20202;-78
2022/11/11 00:54:28;;;;;;;5.50;0.80;;;24.30;99.90;;;;;;5090043;28;20191;-79
2022/11/11 00:56:58;;;;;;;3.00;0.82;;;24.40;99.90;;;;;;5095928;28;20195;-78
2022/11/11 00:59:29;;;;;;;1.90;0.70;;;24.50;99.90;;;;;;5090197;28;20450;-79
2022/11/11 01:02:02;;;;;;;2.60;0.90;;;24.50;99.90;;;;;;5090762;28;20195;-79
2022/11/11 01:04:32;;;;;;;4.93;0.95;;;24.50;99.90;;;;;;5090573;28;20191;-79
2022/11/11 01:07:03;;;;;;;3.63;1.00;;;24.40;99.90;;;;;;5087915;28;20215;-78
2022/11/11 01:09:34;;;;;;;3.28;0.98;;;24.40;99.90;;;;;;5082580;28;20215;-78
2022/11/11 01:12:05;;;;;;;4.13;1.00;;;24.50;99.90;;;;;;5085449;28;20191;-78
2022/11/11 01:14:36;;;;;;;5.22;0.90;;;24.50;99.90;;;;;;5091132;28;20199;-78
2022/11/11 01:17:09;;;;;;;5.60;1.10;;;24.40;99.90;;;;;;5086911;28;20196;-78
2022/11/11 01:19:40;;;;;;;5.57;1.10;;;24.30;99.90;;;;;;5075248;28;20210;-78
2022/11/11 01:22:11;;;;;;;3.03;0.75;;;24.30;99.90;;;;;;5074555;28;20206;-79
2022/11/11 01:24:41;;;;;;;4.15;1.15;;;24.40;99.90;;;;;;5076440;28;20558;-78
2022/11/11 01:27:12;;;;;;;2.40;0.70;;;24.60;99.90;;;;;;5076823;28;20219;-79
2022/11/11 01:29:43;;;;;;;3.83;0.95;;;24.70;99.90;;;;;;5094700;28;20195;-79
2022/11/11 01:32:16;;;;;;;4.45;1.00;;;24.90;99.90;;;;;;5078600;28;20203;-77
2022/11/11 01:34:47;;;;;;;2.85;1.10;;;25.20;99.90;;;;;;5086790;28;20282;-78
2022/11/11 01:37:17;;;;;;;4.47;1.08;;;25.40;99.90;;;;;;5094398;28;20611;-78
2022/11/11 01:39:48;;;;;;;6.65;1.15;;;25.20;99.90;;;;;;5094222;28;20201;-77
2022/11/11 01:42:20;;;;;;;2.90;0.93;;;25.20;99.90;;;;;;5091966;28;20272;-78
2022/11/11 01:44:51;;;;;;;4.10;1.10;;;25.30;99.90;;;;;;5093806;28;20662;-78
2022/11/11 01:49:17;;;;;;;5.28;1.27;;;25.10;99.90;;;;;;5093665;28;20222;-77
2022/11/11 01:50:13;;;;;;;4.35;1.10;;;25.20;99.90;;;;;;5095383;28;20206;-77
2022/11/11 01:52:46;;;;;;;3.25;1.10;;;25.30;99.90;;;;;;5097453;28;20192;-78
2022/11/11 01:55:20;;;;;;;3.63;0.90;;;25.30;99.90;;;;;;5093998;28;20199;-77
2022/11/11 01:57:55;;;;;;;3.88;1.15;;;25.30;99.90;;;;;;5094530;28;20202;-78
2022/11/11 02:00:26;;;;;;;4.32;0.95;;;25.40;99.90;;;;;;5092933;28;20195;-78
2022/11/11 02:03:02;;;;;;;4.18;0.95;;;25.50;99.90;;;;;;5098738;28;20306;-79
2022/11/11 02:05:45;;;;;;;6.82;1.05;;;25.50;99.90;;;;;;5094229;28;20201;-78
2022/11/11 02:08:31;;;;;;;2.22;0.70;;;25.40;99.90;;;;;;5093442;28;20780;-78
2022/11/11 02:11:04;;;;;;;4.22;1.08;;;25.40;99.90;;;;;;5093722;28;20207;-78
2022/11/11 02:16:23;;;;;;;4.72;1.00;;;25.10;99.90;;;;;;5058531;28;20250;-79
2022/11/11 02:18:56;;;;;;;5.63;1.25;;;25.10;99.90;;;;;;5092510;28;20203;-79
2022/11/11 02:21:34;;;;;;;4.05;0.80;;;25.20;99.90;;;;;;5092576;28;20203;-79
2022/11/11 02:24:12;;;;;;;3.83;0.90;;;25.40;99.90;;;;;;5093320;28;20195;-79
2022/11/11 02:26:44;;;;;;;4.22;0.98;;;25.50;99.90;;;;;;5092316;28;20194;-79
2022/11/11 02:29:18;;;;;;;5.10;0.98;;;25.40;99.90;;;;;;5092381;28;20225;-79
2022/11/11 02:31:49;;;;;;;4.93;0.90;;;25.30;99.90;;;;;;5091164;28;20687;-78
2022/11/11 02:34:20;;;;;;;3.80;1.10;;;25.30;99.90;;;;;;5092079;28;20706;-78
2022/11/11 02:36:51;;;;;;;1.83;0.80;;;25.20;99.90;;;;;;5092387;28;20201;-79
2022/11/11 02:39:24;;;;;;;2.17;0.80;;;25.30;99.90;;;;;;5089409;28;20195;-80
2022/11/11 02:42:03;;;;;;;3.42;1.15;;;25.20;99.90;;;;;;5092147;28;20223;-79
2022/11/11 02:44:35;;;;;;;3.13;1.10;;;25.20;99.90;;;;;;5092376;28;20199;-80
2022/11/11 02:47:07;;;;;;;3.78;1.27;;;25.20;99.90;;;;;;5093124;28;20637;-80
2022/11/11 02:49:38;;;;;;;3.20;1.05;;;25.00;99.90;;;;;;5093076;28;20195;-80
2022/11/11 02:52:09;;;;;;;4.32;1.17;;;25.00;99.90;;;;;;5093188;28;20252;-79
2022/11/11 02:54:43;;;;;;;3.88;0.85;;;24.90;99.90;;;;;;5092405;28;20193;-78
2022/11/11 02:57:14;;;;;;;5.05;1.10;;;24.80;99.90;;;;;;5092840;28;20202;-79
2022/11/11 02:59:44;;;;;;;4.15;0.93;;;24.90;99.90;;;;;;5089776;28;20278;-80
2022/11/11 03:02:15;;;;;;;3.83;0.90;;;24.90;99.90;;;;;;5091815;28;20195;-80
2022/11/11 03:04:47;;;;;;;3.72;0.75;;;25.00;99.90;;;;;;5092496;28;20223;-80
2022/11/11 03:07:18;;;;;;;2.45;0.90;;;25.30;99.90;;;;;;5087751;28;20219;-80
2022/11/11 03:09:51;;;;;;;2.33;0.65;;;25.50;99.90;;;;;;5086863;28;20195;-79
2022/11/11 03:12:22;;;;;;;4.07;1.10;;;25.80;99.90;;;;;;5092958;28;20195;-79
2022/11/11 03:14:53;;;;;;;3.95;0.90;;;25.80;99.90;;;;;;5091701;28;20210;-79
2022/11/11 03:17:40;;;;;;;4.32;0.60;;;26.00;99.90;;;;;;5091775;28;20581;-79
2022/11/11 03:23:04;;;;;;;2.53;0.70;;;26.60;99.90;;;;;;5092120;28;20283;-81
2022/11/11 03:25:38;;;;;;;2.97;0.85;;;26.60;99.90;;;;;;5091190;28;20199;-79
2022/11/11 03:28:11;;;;;;;3.45;1.00;;;26.80;99.90;;;;;;5092496;28;20238;-79
2022/11/11 03:30:46;;;;;;;1.63;0.73;;;26.80;99.90;;;;;;5092403;28;20202;-81
2022/11/11 03:33:17;;;;;;;3.85;0.65;;;26.90;99.90;;;;;;5091415;28;20198;-80
2022/11/11 03:35:50;;;;;;;3.95;0.90;;;26.80;99.90;;;;;;5090325;28;20201;-79
2022/11/11 03:38:23;;;;;;;3.53;0.90;;;26.70;99.90;;;;;;5071085;28;20287;-80
2022/11/11 03:40:57;;;;;;;3.33;0.70;;;26.60;99.90;;;;;;5083449;28;20223;-78
2022/11/11 03:43:28;;;;;;;6.03;0.93;;;26.60;99.90;;;;;;5089737;28;20673;-79
2022/11/11 03:46:00;;;;;;;3.47;0.70;;;26.50;99.90;;;;;;5091132;28;20939;-79
2022/11/11 03:48:32;;;;;;;4.97;0.82;;;26.70;99.90;;;;;;5091015;28;20222;-79
2022/11/11 03:51:03;;;;;;;2.42;0.98;;;26.90;99.90;;;;;;5090871;28;20750;-80
2022/11/11 03:53:34;;;;;;;7.10;1.10;;;26.80;99.90;;;;;;5090939;28;20197;-80
2022/11/11 03:56:07;;;;;;;2.28;0.82;;;26.50;99.90;;;;;;5091863;28;20644;-80
2022/11/11 03:58:38;;;;;;;6.53;0.90;;;26.30;99.90;;;;;;5089985;28;20195;-79
2022/11/11 04:10:21;;;;;;;2.85;0.82;;;26.50;99.90;;;;;;5091538;28;20196;-79
2022/11/11 04:12:21;;;;;;;4.57;1.00;;;26.80;99.90;;;;;;5084706;28;20213;-78
2022/11/11 04:17:39;;;;;;;5.07;0.98;;;26.80;99.90;;;;;;5091535;28;20198;-79
2022/11/11 04:22:57;;;;;;;2.13;0.90;;;26.50;99.90;;;;;;5081367;28;20202;-80
2022/11/11 04:31:07;;;;;;;4.35;1.13;;;25.80;99.90;;;;;;5089860;28;20195;-79
2022/11/11 04:33:36;;;;;;;3.80;0.90;;;25.70;99.90;;;;;;5091065;28;20198;-79
2022/11/11 04:36:07;;;;;;;3.60;1.10;;;25.70;99.90;;;;;;5090670;28;20286;-79
2022/11/11 04:41:25;;;;;;;4.10;0.88;;;25.30;99.90;;;;;;5090284;28;20651;-80
2022/11/11 04:46:44;;;;;;;3.55;0.85;;;25.10;99.90;;;;;;5089788;28;20573;-80
2022/11/11 04:49:14;;;;;;;2.45;0.90;;;24.90;99.90;;;;;;5090666;28;20269;-80
2022/11/11 04:56:46;;;;;;;2.28;1.00;;;24.80;99.90;;;;;;5073850;28;20198;-80
2022/11/11 04:57:21;;;;;;;4.72;1.10;;;24.70;99.90;;;;;;5090511;28;20206;-80
2022/11/11 04:59:53;;;;;;;3.58;1.08;;;24.60;99.90;;;;;;5070735;28;20685;-79
2022/11/11 05:05:11;;;;;;;3.17;0.95;;;24.40;99.90;;;;;;5090740;28;20194;-80
2022/11/11 05:10:29;;;;;;;5.63;1.17;;;24.40;99.90;;;;;;5080270;28;20300;-78
2022/11/11 05:21:23;;;;;;;6.25;1.15;;;24.30;99.90;;;;;;5081473;28;20202;-79
2022/11/11 05:29:26;;;;;;;4.32;1.35;;;24.10;99.90;;;;;;5073461;28;20269;-80
2022/11/11 05:31:58;;;;;;;5.13;1.08;;;24.00;99.90;;;;;;5076643;28;20198;-79
2022/11/11 05:34:30;;;;;;;7.82;1.20;;;24.10;99.90;;;;;;5090240;28;20683;-80
2022/11/11 05:37:02;;;;;;;4.80;1.20;;;24.00;99.90;;;;;;5090053;28;20205;-80
2022/11/11 05:39:32;;;;;;;4.68;1.40;;;24.00;99.90;;;;;;5090570;28;20195;-80
2022/11/11 05:42:03;;;;;;;5.03;1.30;;;24.10;99.90;;;;;;5089426;28;20250;-82
2022/11/11 05:44:34;;;;;;;3.05;1.15;;;24.00;99.90;;;;;;5089933;28;20226;-81
2022/11/11 05:47:07;;;;;;;3.97;1.20;;;24.00;99.90;;;;;;5090828;28;20199;-81
2022/11/11 05:49:38;;;;;;;3.55;1.48;;;23.90;99.90;;;;;;5087578;28;20219;-81
2022/11/11 05:52:10;;;;;;;2.90;1.20;;;23.90;99.90;;;;;;5090348;28;20195;-80
2022/11/11 05:54:41;;;;;;;4.95;1.10;;;23.90;99.90;;;;;;5089918;28;20546;-78
2022/11/11 05:57:12;;;;;;;4.32;1.48;;;23.90;99.90;;;;;;5088384;28;20298;-79
2022/11/11 05:59:44;;;;;;;4.95;1.40;;;23.80;99.90;;;;;;5083450;28;20264;-80
2022/11/11 06:02:17;;;;;;;4.25;1.27;;;23.70;99.90;;;;;;5090589;28;20253;-79
2022/11/11 06:04:48;;;;;;;2.92;1.15;;;23.80;99.90;;;;;;5094452;28;20230;-79
2022/11/11 06:07:20;;;;;;;3.35;1.23;;;23.80;99.90;;;;;;5096516;28;20199;-79
2022/11/11 06:09:51;;;;;;;5.03;1.50;;;23.80;99.90;;;;;;5093477;28;20227;-80
2022/11/11 06:12:24;;;;;;;3.17;1.20;;;23.80;99.90;;;;;;5094246;28;20579;-80
2022/11/11 06:14:55;;;;;;;5.82;1.27;;;23.80;99.90;;;;;;5092760;28;20196;-79
2022/11/11 06:17:28;;;;;;;7.93;1.55;;;23.80;99.90;;;;;;5094236;28;20207;-80
2022/11/11 06:19:59;;;;;;;3.90;1.15;;;23.70;99.90;;;;;;5093710;28;20203;-79
2022/11/11 06:27:56;;;;;;;5.75;1.30;;;23.90;99.90;;;;;;5058456;28;20649;-80
2022/11/11 06:30:27;;;;;;;4.80;1.40;;;23.90;99.90;;;;;;5093774;28;20217;-79
2022/11/11 06:33:00;;;;;;;5.80;1.50;;;23.90;99.90;;;;;;5095145;28;20205;-79
2022/11/11 06:35:31;;;;;;;5.38;1.52;;;23.80;99.90;;;;;;5087370;28;20195;-79
2022/11/11 06:38:02;;;;;;;5.05;1.90;;;23.80;99.90;;;;;;5093259;28;20687;-80
2022/11/11 06:40:33;;;;;;;4.38;1.50;;;23.90;99.90;;;;;;5093014;28;20334;-80
2022/11/11 06:43:04;;;;;;;5.38;1.70;;;23.90;99.90;;;;;;5092940;28;20199;-78
2022/11/11 06:45:35;;;;;;;4.28;1.92;;;24.00;99.90;;;;;;5093761;28;20199;-80
2022/11/11 06:48:08;;;;;;;5.55;2.08;;;24.00;99.90;;;;;;5093659;28;20276;-79
2022/11/11 06:50:39;;;;;;;7.18;2.55;;;24.00;99.90;;;;;;5094498;28;20195;-80
2022/11/11 06:53:11;;;;;;;3.78;2.13;;;24.00;99.90;;;;;;5092716;28;20218;-80
2022/11/11 06:55:42;;;;;;;5.63;2.45;;;24.00;99.90;;;;;;5092661;28;20225;-80
2022/11/11 06:58:15;;;;;;;3.20;1.88;;;24.00;99.90;;;;;;5092988;28;20213;-80
2022/11/11 07:00:47;;;;;;;4.75;2.05;;;24.00;99.90;;;;;;5091321;28;20199;-80
2022/11/11 07:03:21;;;;;;;3.40;1.50;;;24.00;99.90;;;;;;5081888;28;20270;-80
2022/11/11 07:05:54;;;;;;;2.08;1.40;;;24.00;99.90;;;;;;5072713;28;20187;-80
2022/11/11 07:08:24;;;;;;;1.42;1.20;;;24.10;99.90;;;;;;5086455;28;20215;-79
2022/11/11 07:10:56;;;;;;;2.28;1.20;;;24.30;99.90;;;;;;5091097;28;20579;-80
2022/11/11 07:13:27;;;;;;;3.70;1.75;;;24.50;99.90;;;;;;5090532;28;20195;-80
2022/11/11 07:15:58;;;;;;;2.22;1.38;;;24.70;99.90;;;;;;5086605;28;20231;-81
2022/11/11 07:18:30;;;;;;;1.92;0.90;;;24.90;99.90;;;;;;5078333;28;20646;-81
2022/11/11 07:21:01;;;;;;;2.05;0.90;;;25.40;99.90;;;;;;5085186;28;20205;-79
2022/11/11 07:23:32;;;;;;;4.15;1.30;;;25.80;99.90;;;;;;5080418;28;20686;-80
2022/11/11 07:26:02;;;;;;;3.42;1.00;;;26.30;99.90;;;;;;5101405;28;20275;-79
2022/11/11 07:28:33;;;;;;;2.30;1.00;;;26.40;99.90;;;;;;5104119;28;20219;-79
2022/11/11 07:31:04;;;;;;;2.03;0.90;;;26.20;99.90;;;;;;5095034;28;20187;-79
2022/11/11 07:33:37;;;;;;;0.77;0.77;;;25.90;99.90;;;;;;5092276;28;20195;-80
2022/11/11 07:36:08;;;;;;;3.22;0.80;;;25.70;99.90;;;;;;5091155;28;20202;-79
2022/11/11 07:38:39;;;;;;;1.55;0.85;;;25.50;99.90;;;;;;5092210;28;20198;-80
2022/11/11 07:41:10;;;;;;;3.33;0.80;;;25.20;99.90;;;;;;5083969;28;20234;-80
2022/11/11 07:43:40;;;;;;;1.13;0.80;;;25.10;99.90;;;;;;5073402;28;20677;-80
2022/11/11 07:46:11;;;;;;;1.98;1.10;;;24.90;99.90;;;;;;5091830;28;20658;-80
2022/11/11 07:48:44;;;;;;;1.50;1.23;;;24.80;99.90;;;;;;5090798;28;20571;-79
2022/11/11 07:51:15;;;;;;;2.00;0.77;;;24.70;99.90;;;;;;5081999;28;20214;-79
2022/11/11 07:53:45;;;;;;;0.85;0.70;;;24.60;99.90;;;;;;5085634;28;20205;-79
2022/11/11 07:56:16;;;;;;;3.55;0.70;;;24.60;99.90;;;;;;5091943;28;20736;-79
2022/11/11 07:58:47;;;;;;;0.60;0.60;;;24.50;99.90;;;;;;5083439;28;20196;-79
2022/11/11 08:01:18;;;;;;;0.88;0.80;;;24.50;99.90;;;;;;5087157;28;20201;-80
2022/11/11 08:03:51;;;;;;;1.10;0.75;;;24.40;99.90;;;;;;5091474;28;20206;-78
2022/11/11 08:06:23;;;;;;;1.65;0.80;;;24.40;99.90;;;;;;5091321;28;20574;-78
2022/11/11 08:08:55;;;;;;;1.08;0.70;;;24.30;99.90;;;;;;5069949;28;20212;-80
2022/11/11 08:14:09;;;;;;;1.55;0.80;;;24.10;99.90;;;;;;5080334;28;20191;-80
2022/11/11 08:16:40;;;;;;;2.40;1.17;;;24.10;99.90;;;;;;5091324;28;20714;-80
2022/11/11 08:19:12;;;;;;;1.15;0.70;;;24.10;99.90;;;;;;5111540;28;20225;-79
2022/11/11 08:21:43;;;;;;;0.80;0.70;;;23.90;99.90;;;;;;5107463;28;20199;-80
2022/11/11 08:24:15;;;;;;;1.38;0.93;;;23.90;99.90;;;;;;5090704;28;20671;-79
2022/11/11 08:26:46;;;;;;;0.93;0.80;;;23.80;99.90;;;;;;5090487;28;20298;-79
2022/11/11 08:29:17;;;;;;;1.67;0.73;;;23.70;99.90;;;;;;5090993;28;20233;-79
2022/11/11 08:31:48;;;;;;;1.50;0.80;;;23.70;99.90;;;;;;5088448;28;20212;-80
2022/11/11 08:37:25;;;;;;;1.45;0.80;;;23.60;99.90;;;;;;5109437;28;20242;-80
2022/11/11 08:46:17;;;;;;;1.30;0.85;;;23.40;99.90;;;;;;5104854;28;20194;-80
2022/11/11 08:48:55;;;;;;;1.55;0.95;;;23.40;99.90;;;;;;5105829;28;20276;-80
2022/11/11 08:51:44;;;;;;;3.95;1.38;;;23.40;99.90;;;;;;5108023;28;20219;-80
2022/11/11 08:54:34;;;;;;;1.48;0.90;;;23.40;99.90;;;;;;5104737;28;20246;-80
2022/11/11 08:57:26;;;;;;;0.82;0.80;;;23.40;99.90;;;;;;5102138;28;20230;-79
2022/11/11 09:00:05;;;;;;;1.63;0.85;;;23.30;99.90;;;;;;5114465;28;20210;-79
2022/11/11 09:05:24;;;;;;;1.48;0.90;;;23.30;99.90;;;;;;5103304;28;20208;-79
2022/11/11 09:08:11;;;;;;;2.35;0.93;;;23.20;99.90;;;;;;5087975;28;20195;-80
2022/11/11 09:10:59;;;;;;;2.30;1.08;;;23.20;99.90;;;;;;5106038;22;20224;-80
2022/11/11 09:13:39;;;;;;;3.42;1.10;;;23.10;99.90;;;;;;5042371;28;20217;-79
2022/11/11 09:19:01;;;;;;;2.33;1.23;;;23.10;99.90;;;;;;5034544;28;20233;-79
2022/11/11 09:21:31;;;;;;;1.88;0.90;;;23.00;99.90;;;;;;5027065;28;20200;-79
2022/11/11 09:24:07;;;;;;;1.08;0.85;;;23.00;99.90;;;;;;5050430;28;20188;-80
2022/11/11 09:26:52;;;;;;;0.70;0.70;;;22.90;99.90;;;;;;5048265;28;20307;-80
2022/11/11 09:29:27;;;;;;;1.15;0.75;;;22.90;99.90;;;;;;5053238;28;20272;-80
2022/11/11 09:32:08;;;;;;;2.13;0.90;;;22.90;99.90;;;;;;5050910;28;20188;-82
2022/11/11 09:34:56;;;;;;;1.35;0.90;;;22.80;99.90;;;;;;5052727;28;20210;-79
2022/11/11 09:37:27;;;;;;;1.63;0.95;;;22.80;99.90;;;;;;5036840;28;20193;-79
2022/11/11 09:40:04;;;;;;;2.35;1.05;;;22.80;99.90;;;;;;5055318;28;20641;-80
2022/11/11 09:43:07;;;;;;;1.13;0.93;;;22.80;99.90;;;;;;5026893;28;20213;-80
2022/11/11 09:48:52;;;;;;;2.40;1.00;;;22.70;99.90;;;;;;5028823;28;20193;-80
2022/11/11 09:51:29;;;;;;;1.50;0.80;;;22.60;99.90;;;;;;5047155;28;20189;-79
2022/11/11 09:54:07;;;;;;;1.88;1.00;;;22.60;99.90;;;;;;5029240;28;20200;-79
2022/11/11 09:56:41;;;;;;;1.92;0.90;;;22.50;99.90;;;;;;5015705;28;20221;-79
2022/11/11 09:59:19;;;;;;;0.70;0.70;;;22.50;99.90;;;;;;5030018;28;20726;-79
2022/11/11 10:01:53;;;;;;;1.63;0.90;;;22.50;99.90;;;;;;5039279;28;20660;-79
2022/11/11 10:04:35;;;;;;;1.90;0.82;;;22.50;99.90;;;;;;5041527;28;20227;-78
2022/11/11 10:07:13;;;;;;;1.70;0.88;;;22.40;99.90;;;;;;5038049;28;20641;-79
2022/11/11 10:09:48;;;;;;;1.05;0.80;;;22.40;99.90;;;;;;5037922;28;20229;-78
2022/11/11 10:12:24;;;;;;;0.80;0.80;;;22.40;99.90;;;;;;5066426;28;20226;-79
2022/11/11 10:14:55;;;;;;;1.00;0.90;;;22.40;99.90;;;;;;5077716;28;20662;-78
2022/11/11 10:17:36;;;;;;;2.50;1.05;;;22.30;99.90;;;;;;5077109;28;20194;-80
2022/11/11 10:20:18;;;;;;;1.98;1.10;;;22.30;99.90;;;;;;5078144;28;20199;-79
2022/11/11 10:22:58;;;;;;;2.88;1.00;;;22.30;99.90;;;;;;5072642;28;20202;-80
2022/11/11 10:25:29;;;;;;;1.48;1.10;;;22.30;99.90;;;;;;5079435;28;20638;-79
2022/11/11 10:28:06;;;;;;;2.28;1.10;;;22.20;99.90;;;;;;5078954;28;20220;-80
2022/11/11 10:30:38;;;;;;;1.10;1.00;;;22.20;99.90;;;;;;5064613;28;20302;-79
2022/11/11 10:33:18;;;;;;;1.70;1.58;;;22.20;99.90;;;;;;5057992;28;20228;-78
2022/11/11 10:35:52;;;;;;;3.15;1.90;;;22.20;99.90;;;;;;5071482;28;20192;-78
2022/11/11 10:38:37;;;;;;;2.97;1.85;;;22.10;99.90;;;;;;5072881;28;20200;-78
2022/11/11 10:41:16;;;;;;;2.60;1.90;;;22.10;99.90;;;;;;5059907;28;20267;-78
2022/11/11 10:43:52;;;;;;;3.25;1.90;;;22.00;99.90;;;;;;5058776;28;20204;-79
2022/11/11 10:46:26;;;;;;;4.57;2.22;;;22.00;99.90;;;;;;5058190;28;20549;-79
2022/11/11 10:49:01;;;;;;;4.15;2.10;;;22.00;99.90;;;;;;5056753;28;20180;-78
2022/11/11 10:51:38;;;;;;;5.63;3.20;;;22.00;99.90;;;;;;5071309;28;20192;-78
2022/11/11 10:54:15;;;;;;;5.93;4.70;;;22.00;99.90;;;;;;5076390;28;20200;-80
2022/11/11 10:56:53;;;;;;;10.27;6.20;;;21.90;99.90;;;;;;5077398;28;20235;-79
2022/11/11 10:59:33;;;;;;;7.88;5.70;;;21.90;99.90;;;;;;5077420;28;20635;-79
2022/11/11 11:02:11;;;;;;;7.60;5.68;;;21.90;99.90;;;;;;5077468;28;20236;-79
2022/11/11 11:04:47;;;;;;;8.05;5.82;;;21.90;99.90;;;;;;5078516;28;20215;-80
2022/11/11 11:07:22;;;;;;;8.38;5.50;;;21.90;99.90;;;;;;5076306;28;20201;-79
2022/11/11 11:09:58;;;;;;;7.28;4.90;;;21.80;99.90;;;;;;5077906;28;20313;-77
2022/11/11 11:12:48;;;;;;;4.55;3.65;;;21.80;99.90;;;;;;5078045;28;20227;-76
2022/11/11 11:15:24;;;;;;;4.25;2.97;;;21.80;99.90;;;;;;5070932;28;20192;-78
2022/11/11 11:18:00;;;;;;;4.78;2.92;;;21.80;99.90;;;;;;5077272;28;20219;-79
2022/11/11 11:20:31;;;;;;;6.10;3.15;;;21.70;99.90;;;;;;5077284;28;20205;-79
2022/11/11 11:23:06;;;;;;;4.15;2.70;;;21.80;99.90;;;;;;5076269;28;20541;-79
2022/11/11 11:25:37;;;;;;;3.55;2.80;;;21.80;99.90;;;;;;5064199;28;20226;-80
2022/11/11 11:28:13;;;;;;;3.70;2.50;;;21.70;99.90;;;;;;5077360;28;20282;-79
2022/11/11 11:31:01;;;;;;;7.32;3.00;;;21.70;99.90;;;;;;5067500;28;20263;-79
2022/11/11 11:33:53;;;;;;;3.55;2.58;;;21.70;99.90;;;;;;5074189;28;20284;-80
2022/11/11 11:36:24;;;;;;;4.18;3.05;;;21.60;99.90;;;;;;5072902;28;20276;-80
2022/11/11 11:38:54;;;;;;;6.38;4.32;;;21.60;99.90;;;;;;5061876;28;20215;-79
2022/11/11 11:41:40;;;;;;;6.32;4.85;;;21.60;99.90;;;;;;5064947;28;20184;-79
2022/11/11 11:44:29;;;;;;;7.93;5.03;;;21.60;99.90;;;;;;5057607;28;20207;-80
2022/11/11 11:47:15;;;;;;;5.95;4.63;;;21.60;99.90;;;;;;5054941;28;20754;-81
2022/11/11 11:50:01;;;;;;;8.20;5.28;;;21.60;99.90;;;;;;5072488;28;20227;-80
2022/11/11 11:52:40;;;;;;;7.65;5.25;;;21.60;99.90;;;;;;5071773;28;20234;-79
2022/11/11 11:55:18;;;;;;;8.15;5.88;;;21.50;99.90;;;;;;5067697;28;20565;-80
2022/11/11 11:58:04;;;;;;;9.70;7.15;;;21.50;99.90;;;;;;5051220;28;20197;-79
2022/11/11 12:00:40;;;;;;;9.23;6.57;;;21.50;99.90;;;;;;5051222;28;20208;-80
2022/11/11 12:03:44;;;;;;;12.73;7.40;;;21.50;99.90;;;;;;5051679;28;20206;-80
2022/11/11 12:06:21;;;;;;;12.93;7.30;;;21.40;99.90;;;;;;5070161;28;20199;-81
2022/11/11 12:09:07;;;;;;;7.07;5.35;;;21.40;99.90;;;;;;5070895;28;20210;-82
2022/11/11 12:11:47;;;;;;;6.50;4.28;;;21.40;99.90;;;;;;5070229;28;20289;-81
2022/11/11 12:14:46;;;;;;;6.88;4.57;;;21.40;99.90;;;;;;5070547;28;20538;-80
2022/11/11 12:17:30;;;;;;;5.68;4.47;;;21.40;99.90;;;;;;5071468;28;20200;-81
2022/11/11 12:20:13;;;;;;;5.50;3.85;;;21.40;99.90;;;;;;5061294;28;20219;-80
2022/11/11 12:22:58;;;;;;;6.90;3.40;;;21.30;99.90;;;;;;5066565;28;20268;-80
2022/11/11 12:25:57;;;;;;;3.50;2.70;;;21.30;99.90;;;;;;5068293;28;20203;-81
2022/11/11 12:28:44;;;;;;;3.60;2.40;;;21.30;99.90;;;;;;5060724;28;20259;-80
2022/11/11 12:31:27;;;;;;;2.95;1.80;;;21.20;99.90;;;;;;5070625;28;20246;-80
2022/11/11 12:34:12;;;;;;;2.15;1.50;;;21.20;99.90;;;;;;5068439;28;20203;-81
2022/11/11 12:36:55;;;;;;;2.38;1.30;;;21.20;99.90;;;;;;5051230;28;20555;-81
2022/11/11 12:39:46;;;;;;;3.72;1.30;;;21.20;99.90;;;;;;5064018;28;20242;-81
2022/11/11 12:42:28;;;;;;;2.45;1.38;;;21.10;99.90;;;;;;5085782;28;20188;-80
2022/11/11 12:45:11;;;;;;;2.47;1.25;;;21.10;99.90;;;;;;5071508;28;20661;-81
2022/11/11 12:47:54;;;;;;;1.40;1.30;;;21.10;99.90;;;;;;5065476;28;20189;-80
2022/11/11 12:50:28;;;;;;;1.55;1.10;;;21.10;99.90;;;;;;5050381;28;20573;-80
2022/11/11 12:53:18;;;;;;;3.97;1.20;;;21.10;99.90;;;;;;5067232;28;20196;-80
2022/11/11 12:56:07;;;;;;;1.73;1.30;;;21.10;99.90;;;;;;5058936;28;20200;-81
2022/11/11 12:58:46;;;;;;;1.92;1.15;;;21.00;99.90;;;;;;5069781;28;20200;-81
2022/11/11 13:01:24;;;;;;;3.05;1.23;;;21.00;99.90;;;;;;5053662;28;20200;-80
2022/11/11 13:04:10;;;;;;;1.65;1.15;;;21.00;99.90;;;;;;5050039;28;20207;-80
2022/11/11 13:07:03;;;;;;;1.13;1.05;;;21.00;99.90;;;;;;5058043;28;20196;-80
2022/11/11 13:09:47;;;;;;;1.40;0.98;;;21.00;99.90;;;;;;5070523;28;20188;-81
2022/11/11 13:12:22;;;;;;;2.33;0.80;;;21.00;99.90;;;;;;5060650;28;20226;-80
2022/11/11 13:15:04;;;;;;;1.73;0.80;;;21.00;99.90;;;;;;5066750;28;20256;-80
2022/11/11 13:17:35;;;;;;;1.15;1.02;;;21.00;99.90;;;;;;5069949;28;20597;-81
2022/11/11 13:20:16;;;;;;;1.48;1.00;;;21.00;99.90;;;;;;5069871;28;20208;-80
2022/11/11 13:22:49;;;;;;;2.08;1.08;;;21.10;99.90;;;;;;5069556;28;20241;-81
2022/11/11 13:25:27;;;;;;;2.35;0.98;;;21.00;99.90;;;;;;5067308;28;20254;-80
2022/11/11 13:28:04;;;;;;;2.28;1.13;;;21.00;99.90;;;;;;5063266;28;20283;-80
2022/11/11 13:30:59;;;;;;;1.83;1.08;;;20.90;99.90;;;;;;5069686;28;20317;-80
2022/11/11 13:33:39;;;;;;;2.72;1.10;;;20.90;99.90;;;;;;5069269;28;20653;-80
2022/11/11 13:36:14;;;;;;;1.85;1.10;;;20.90;99.90;;;;;;5069650;28;20195;-79
2022/11/11 13:38:50;;;;;;;3.08;1.00;;;20.90;99.90;;;;;;5069897;28;20293;-80
2022/11/11 13:41:29;;;;;;;1.17;1.00;;;20.80;99.90;;;;;;5080315;28;20214;-80
2022/11/11 13:44:01;;;;;;;1.38;0.90;;;20.90;99.90;;;;;;5067931;28;20378;-81
2022/11/11 13:46:39;;;;;;;1.48;0.90;;;20.80;99.90;;;;;;5056096;28;20231;-81
2022/11/11 13:49:22;;;;;;;1.52;0.90;;;20.80;99.90;;;;;;5050850;28;20206;-81
2022/11/11 13:52:01;;;;;;;1.65;1.08;;;20.80;99.90;;;;;;5050742;28;20246;-80
2022/11/11 13:54:35;;;;;;;1.42;1.00;;;20.80;99.90;;;;;;5050275;28;20284;-80
2022/11/11 13:57:15;;;;;;;1.42;1.02;;;20.80;99.90;;;;;;5056575;28;20215;-81
2022/11/11 13:59:55;;;;;;;1.85;0.90;;;20.70;99.90;;;;;;5070156;28;20532;-81
2022/11/11 14:02:34;;;;;;;1.23;0.90;;;20.70;99.90;;;;;;5066378;28;20253;-82
2022/11/11 14:05:25;;;;;;;1.50;0.90;;;20.70;99.90;;;;;;5069644;28;20203;-80
2022/11/11 14:07:58;;;;;;;1.00;0.90;;;20.70;99.90;;;;;;5069524;28;20295;-81
2022/11/11 14:10:57;;;;;;;2.60;0.90;;;20.70;99.90;;;;;;5069371;28;20359;-81
2022/11/11 14:13:43;;;;;;;1.95;1.10;;;20.70;99.90;;;;;;5064651;28;20210;-81
2022/11/11 14:16:36;;;;;;;1.75;0.90;;;20.70;99.90;;;;;;5052827;28;20196;-80
2022/11/11 14:19:32;;;;;;;1.90;1.00;;;20.70;99.90;;;;;;5053166;28;20613;-80
2022/11/11 14:22:04;;;;;;;1.25;1.00;;;20.70;99.90;;;;;;5068598;28;20208;-81
2022/11/11 14:24:40;;;;;;;1.17;0.90;;;20.60;99.90;;;;;;5069977;28;20680;-80
2022/11/11 14:27:22;;;;;;;1.58;1.00;;;20.60;99.90;;;;;;5055401;28;20207;-80
2022/11/11 14:29:57;;;;;;;1.88;1.00;;;20.60;99.90;;;;;;5056210;28;20222;-80
2022/11/11 14:32:50;;;;;;;1.42;0.82;;;20.50;99.90;;;;;;5065369;28;20203;-80
2022/11/11 14:35:35;;;;;;;1.80;1.10;;;20.50;99.90;;;;;;5070084;28;20268;-80
2022/11/11 14:38:27;;;;;;;2.28;1.15;;;20.50;99.90;;;;;;5069535;28;20199;-80
2022/11/11 14:40:58;;;;;;;1.17;0.93;;;20.40;99.90;;;;;;5073021;28;20200;-81
2022/11/11 14:43:40;;;;;;;2.10;1.20;;;20.40;99.90;;;;;;5072968;28;20199;-80
2022/11/11 14:46:13;;;;;;;1.38;1.05;;;20.40;99.90;;;;;;5072876;28;20227;-80
2022/11/11 14:49:02;;;;;;;1.98;1.20;;;20.40;99.90;;;;;;5059223;28;20229;-80
2022/11/11 14:51:51;;;;;;;1.25;1.00;;;20.40;99.90;;;;;;5054778;28;20224;-80
2022/11/11 14:54:35;;;;;;;1.17;1.00;;;20.50;99.90;;;;;;5067022;28;20287;-81
2022/11/11 14:57:21;;;;;;;3.35;1.13;;;20.50;99.90;;;;;;5070770;28;20733;-80
2022/11/11 14:59:53;;;;;;;1.90;1.05;;;20.50;99.90;;;;;;5063421;28;20242;-79
2022/11/11 15:02:34;;;;;;;1.80;1.02;;;20.50;99.90;;;;;;5072791;28;20248;-80
2022/11/11 15:05:07;;;;;;;2.05;1.30;;;20.40;99.90;;;;;;5092176;28;20206;-80